sensor_id;sensor_type;location;lat;lon;timestamp;pressure;altitude;pressure_sealevel;temperature;humidity
19789;BME280;10054;59.332;18.244;2023-03-26T00:01:39;99273.39;;;-1.83;100.00
19789;BME280;10054;59.332;18.244;2023-03-26T00:04:10;99274.39;;;-1.87;100.00
19789;BME280;10054;59.332;18.244;2023-03-26T00:06:39;99269.17;;;-1.85;100.00
19789;BME280;10054;59.332;18.244;2023-03-26T00:09:09;99269.23;;;-1.87;100.00
19789;BME280;10054;59.332;18.244;2023-03-26T00:11:40;99270.56;;;-1.88;100.00
19789;BME280;10054;59.332;18.244;2023-03-26T00:14:09;99264.40;;;-1.84;100.00
19789;BME280;10054;59.332;18.244;2023-03-26T00:16:40;99265.34;;;-1.87;100.00
19789;BME280;10054;59.332;18.244;2023-03-26T00:19:12;99260.52;;;-1.84;100.00
19789;BME280;10054;59.332;18.244;2023-03-26T00:21:41;99272.70;;;-1.88;100.00
19789;BME280;10054;59.332;18.244;2023-03-26T00:24:12;99267.88;;;-1.85;100.00
19789;BME280;10054;59.332;18.244;2023-03-26T00:26:43;99275.58;;;-1.84;100.00
19789;BME280;10054;59.332;18.244;2023-03-26T00:29:14;99276.19;;;-1.89;100.00
19789;BME280;10054;59.332;18.244;2023-03-26T00:31:44;99276.63;;;-1.89;100.00
19789;BME280;10054;59.332;18.244;2023-03-26T00:34:13;99277.42;;;-1.87;100.00
19789;BME280;10054;59.332;18.244;2023-03-26T00:36:44;99269.77;;;-1.90;100.00
19789;BME280;10054;59.332;18.244;2023-03-26T00:39:13;99271.06;;;-1.90;100.00
19789;BME280;10054;59.332;18.244;2023-03-26T00:41:43;99269.33;;;-1.90;100.00
19789;BME280;10054;59.332;18.244;2023-03-26T00:44:13;99268.93;;;-1.91;100.00
19789;BME280;10054;59.332;18.244;2023-03-26T00:46:42;99260.48;;;-1.96;100.00
19789;BME280;10054;59.332;18.244;2023-03-26T00:49:11;99264.02;;;-1.99;100.00
19789;BME280;10054;59.332;18.244;2023-03-26T00:51:41;99264.41;;;-1.97;100.00
19789;BME280;10054;59.332;18.244;2023-03-26T00:54:10;99268.23;;;-1.96;100.00
19789;BME280;10054;59.332;18.244;2023-03-26T00:56:39;99266.89;;;-1.94;100.00
19789;BME280;10054;59.332;18.244;2023-03-26T00:59:08;99266.50;;;-1.95;100.00
19789;BME280;10054;59.332;18.244;2023-03-26T01:01:37;99261.28;;;-1.94;100.00
19789;BME280;10054;59.332;18.244;2023-03-26T01:04:27;99267.34;;;-1.95;100.00
19789;BME280;10054;59.332;18.244;2023-03-26T01:07:08;99267.69;;;-1.92;100.00
19789;BME280;10054;59.332;18.244;2023-03-26T01:09:34;99263.42;;;-1.93;100.00
19789;BME280;10054;59.332;18.244;2023-03-26T01:12:06;99261.67;;;-1.93;100.00
19789;BME280;10054;59.332;18.244;2023-03-26T01:14:37;99271.12;;;-1.92;100.00
19789;BME280;10054;59.332;18.244;2023-03-26T01:17:07;99270.27;;;-1.92;100.00
19789;BME280;10054;59.332;18.244;2023-03-26T01:22:20;99274.15;;;-1.92;100.00
19789;BME280;10054;59.332;18.244;2023-03-26T01:24:49;99271.52;;;-1.91;100.00
19789;BME280;10054;59.332;18.244;2023-03-26T01:30:18;99277.19;;;-1.93;100.00
19789;BME280;10054;59.332;18.244;2023-03-26T01:38:22;99278.08;;;-1.94;100.00
19789;BME280;10054;59.332;18.244;2023-03-26T01:41:06;99278.08;;;-1.94;100.00
19789;BME280;10054;59.332;18.244;2023-03-26T01:43:41;99268.93;;;-1.91;100.00
19789;BME280;10054;59.332;18.244;2023-03-26T01:46:10;99273.60;;;-1.89;100.00
19789;BME280;10054;59.332;18.244;2023-03-26T01:48:42;99271.86;;;-1.88;100.00
19789;BME280;10054;59.332;18.244;2023-03-26T01:51:13;99279.56;;;-1.87;100.00
19789;BME280;10054;59.332;18.244;2023-03-26T01:53:46;99278.52;;;-1.81;100.00
19789;BME280;10054;59.332;18.244;2023-03-26T02:10:02;99286.81;;;-1.85;100.00
19789;BME280;10054;59.332;18.244;2023-03-26T02:12:32;99289.00;;;-1.86;100.00
19789;BME280;10054;59.332;18.244;2023-03-26T02:15:02;99281.75;;;-1.88;100.00
19789;BME280;10054;59.332;18.244;2023-03-26T02:17:32;99284.73;;;-1.87;100.00
19789;BME280;10054;59.332;18.244;2023-03-26T02:20:01;99279.56;;;-1.87;100.00
19789;BME280;10054;59.332;18.244;2023-03-26T02:22:34;99285.13;;;-1.86;100.00
19789;BME280;10054;59.332;18.244;2023-03-26T02:25:06;99285.08;;;-1.84;100.00
19789;BME280;10054;59.332;18.244;2023-03-26T02:27:36;99284.63;;;-1.84;100.00
19789;BME280;10054;59.332;18.244;2023-03-26T02:30:07;99283.78;;;-1.84;100.00
19789;BME280;10054;59.332;18.244;2023-03-26T02:32:37;99286.42;;;-1.86;100.00
19789;BME280;10054;59.332;18.244;2023-03-26T02:35:08;99285.58;;;-1.86;100.00
19789;BME280;10054;59.332;18.244;2023-03-26T02:37:37;99288.16;;;-1.86;100.00
19789;BME280;10054;59.332;18.244;2023-03-26T02:40:11;99292.09;;;-1.88;100.00
19789;BME280;10054;59.332;18.244;2023-03-26T02:42:42;99284.78;;;-1.88;100.00
19789;BME280;10054;59.332;18.244;2023-03-26T02:45:12;99284.34;;;-1.88;100.00
19789;BME280;10054;59.332;18.244;2023-03-26T02:47:45;99285.18;;;-1.87;100.00
19789;BME280;10054;59.332;18.244;2023-03-26T02:50:18;99283.89;;;-1.87;100.00
19789;BME280;10054;59.332;18.244;2023-03-26T02:53:05;99290.34;;;-1.87;100.00
19789;BME280;10054;59.332;18.244;2023-03-26T02:55:35;99281.41;;;-1.90;100.00
19789;BME280;10054;59.332;18.244;2023-03-26T02:58:04;99285.23;;;-1.89;100.00
19789;BME280;10054;59.332;18.244;2023-03-26T03:00:35;99283.14;;;-1.91;100.00
19789;BME280;10054;59.332;18.244;2023-03-26T03:03:24;99291.39;;;-1.93;100.00
19789;BME280;10054;59.332;18.244;2023-03-26T03:06:01;99282.80;;;-1.93;100.00
19789;BME280;10054;59.332;18.244;2023-03-26T03:08:31;99285.78;;;-1.92;100.00
19789;BME280;10054;59.332;18.244;2023-03-26T03:11:07;99287.47;;;-1.91;100.00
19789;BME280;10054;59.332;18.244;2023-03-26T03:13:38;99294.83;;;-1.92;100.00
19789;BME280;10054;59.332;18.244;2023-03-26T03:16:07;99297.80;;;-1.91;100.00
19789;BME280;10054;59.332;18.244;2023-03-26T03:18:36;99293.53;;;-1.92;100.00
19789;BME280;10054;59.332;18.244;2023-03-26T03:21:06;99287.47;;;-1.91;100.00
19789;BME280;10054;59.332;18.244;2023-03-26T03:23:35;99290.95;;;-1.92;100.00
19789;BME280;10054;59.332;18.244;2023-03-26T03:26:10;99291.39;;;-1.93;100.00
19789;BME280;10054;59.332;18.244;2023-03-26T03:28:40;99297.45;;;-1.94;100.00
19789;BME280;10054;59.332;18.244;2023-03-26T03:31:08;99293.98;;;-1.93;100.00
19789;BME280;10054;59.332;18.244;2023-03-26T03:33:38;99294.83;;;-1.92;100.00
19789;BME280;10054;59.332;18.244;2023-03-26T03:36:10;99286.17;;;-1.91;100.00
19789;BME280;10054;59.332;18.244;2023-03-26T03:38:40;99288.77;;;-1.91;100.00
19789;BME280;10054;59.332;18.244;2023-03-26T03:41:09;99281.85;;;-1.91;100.00
19789;BME280;10054;59.332;18.244;2023-03-26T03:43:40;99283.09;;;-1.89;100.00
19789;BME280;10054;59.332;18.244;2023-03-26T03:46:10;99287.81;;;-1.89;100.00
19789;BME280;10054;59.332;18.244;2023-03-26T03:48:41;99280.91;;;-1.88;100.00
19789;BME280;10054;59.332;18.244;2023-03-26T03:51:11;99284.34;;;-1.88;100.00
19789;BME280;10054;59.332;18.244;2023-03-26T03:53:47;99284.78;;;-1.88;100.00
19789;BME280;10054;59.332;18.244;2023-03-26T03:56:18;99296.47;;;-1.90;100.00
19789;BME280;10054;59.332;18.244;2023-03-26T03:58:50;99299.84;;;-1.88;100.00
19789;BME280;10054;59.332;18.244;2023-03-26T04:01:20;99296.86;;;-1.89;100.00
19789;BME280;10054;59.332;18.244;2023-03-26T04:03:57;99292.98;;;-1.89;100.00
19789;BME280;10054;59.332;18.244;2023-03-26T04:06:28;99300.29;;;-1.88;100.00
19789;BME280;10054;59.332;18.244;2023-03-26T04:08:56;99295.91;;;-1.86;100.00
19789;BME280;10054;59.332;18.244;2023-03-26T04:11:26;99291.98;;;-1.85;100.00
19789;BME280;10054;59.332;18.244;2023-03-26T04:13:56;99292.48;;;-1.87;100.00
19789;BME280;10054;59.332;18.244;2023-03-26T04:16:33;99288.95;;;-1.84;100.00
19789;BME280;10054;59.332;18.244;2023-03-26T04:19:02;99289.85;;;-1.85;100.00
19789;BME280;10054;59.332;18.244;2023-03-26T04:21:31;99283.39;;;-1.85;100.00
19789;BME280;10054;59.332;18.244;2023-03-26T04:24:02;99299.30;;;-1.84;100.00
19789;BME280;10054;59.332;18.244;2023-03-26T04:26:36;99304.11;;;-1.87;100.00
19789;BME280;10054;59.332;18.244;2023-03-26T04:29:07;99292.03;;;-1.86;100.00
19789;BME280;10054;59.332;18.244;2023-03-26T04:31:38;99295.02;;;-1.85;100.00
19789;BME280;10054;59.332;18.244;2023-03-26T04:34:16;99301.53;;;-1.87;100.00
19789;BME280;10054;59.332;18.244;2023-03-26T04:36:52;99302.83;;;-1.87;100.00
19789;BME280;10054;59.332;18.244;2023-03-26T04:39:22;99309.69;;;-1.86;100.00
19789;BME280;10054;59.332;18.244;2023-03-26T04:42:13;99306.70;;;-1.87;100.00
19789;BME280;10054;59.332;18.244;2023-03-26T04:44:47;99305.80;;;-1.86;100.00
19789;BME280;10054;59.332;18.244;2023-03-26T04:47:18;99313.46;;;-1.83;100.00
19789;BME280;10054;59.332;18.244;2023-03-26T04:49:47;99315.15;;;-1.82;100.00
19789;BME280;10054;59.332;18.244;2023-03-26T04:52:16;99307.30;;;-1.79;100.00
19789;BME280;10054;59.332;18.244;2023-03-26T04:55:06;99311.62;;;-1.79;100.00
19789;BME280;10054;59.332;18.244;2023-03-26T04:57:41;99312.41;;;-1.77;100.00
19789;BME280;10054;59.332;18.244;2023-03-26T05:00:15;99315.00;;;-1.77;100.00
19789;BME280;10054;59.332;18.244;2023-03-26T05:02:47;99313.25;;;-1.77;100.00
19789;BME280;10054;59.332;18.244;2023-03-26T05:05:20;99309.77;;;-1.76;100.00
19789;BME280;10054;59.332;18.244;2023-03-26T05:07:50;99306.30;;;-1.75;100.00
19789;BME280;10054;59.332;18.244;2023-03-26T05:10:22;99303.36;;;-1.77;100.00
19789;BME280;10054;59.332;18.244;2023-03-26T05:12:52;99309.27;;;-1.74;100.00
19789;BME280;10054;59.332;18.244;2023-03-26T05:15:23;99312.66;;;-1.72;100.00
19789;BME280;10054;59.332;18.244;2023-03-26T05:17:53;99310.36;;;-1.68;100.00
19789;BME280;10054;59.332;18.244;2023-03-26T05:20:33;99312.39;;;-1.64;100.00
19789;BME280;10054;59.332;18.244;2023-03-26T05:23:02;99307.57;;;-1.61;100.00
19789;BME280;10054;59.332;18.244;2023-03-26T05:25:34;99313.59;;;-1.61;100.00
19789;BME280;10054;59.332;18.244;2023-03-26T05:28:04;99305.83;;;-1.61;100.00
19789;BME280;10054;59.332;18.244;2023-03-26T05:30:35;99312.19;;;-1.58;100.00
19789;BME280;10054;59.332;18.244;2023-03-26T05:33:04;99307.91;;;-1.59;100.00
19789;BME280;10054;59.332;18.244;2023-03-26T05:35:36;99310.89;;;-1.58;100.00
19789;BME280;10054;59.332;18.244;2023-03-26T05:38:06;99320.34;;;-1.57;100.00
19789;BME280;10054;59.332;18.244;2023-03-26T05:40:35;99316.81;;;-1.54;100.00
19789;BME280;10054;59.332;18.244;2023-03-26T05:43:05;99321.29;;;-1.48;100.00
19789;BME280;10054;59.332;18.244;2023-03-26T05:45:36;99320.08;;;-1.49;100.00
19789;BME280;10054;59.332;18.244;2023-03-26T05:48:09;99320.58;;;-1.51;100.00
19789;BME280;10054;59.332;18.244;2023-03-26T05:50:38;99318.89;;;-1.52;100.00
19789;BME280;10054;59.332;18.244;2023-03-26T05:53:07;99321.93;;;-1.53;100.00
19789;BME280;10054;59.332;18.244;2023-03-26T05:55:43;99325.36;;;-1.52;100.00
19789;BME280;10054;59.332;18.244;2023-03-26T05:58:14;99325.06;;;-1.56;100.00
19789;BME280;10054;59.332;18.244;2023-03-26T06:00:59;99327.26;;;-1.57;100.00
19789;BME280;10054;59.332;18.244;2023-03-26T06:03:32;99328.89;;;-1.55;100.00
19789;BME280;10054;59.332;18.244;2023-03-26T06:06:11;99331.43;;;-1.53;100.00
19789;BME280;10054;59.332;18.244;2023-03-26T06:08:46;99327.95;;;-1.52;100.00
19789;BME280;10054;59.332;18.244;2023-03-26T06:11:19;99327.89;;;-1.51;100.00
19789;BME280;10054;59.332;18.244;2023-03-26T06:13:48;99328.29;;;-1.50;100.00
19789;BME280;10054;59.332;18.244;2023-03-26T06:16:17;99321.29;;;-1.48;100.00
19789;BME280;10054;59.332;18.244;2023-03-26T06:18:50;99327.70;;;-1.46;100.00
19789;BME280;10054;59.332;18.244;2023-03-26T06:21:22;99318.66;;;-1.46;100.00
19789;BME280;10054;59.332;18.244;2023-03-26T06:23:53;99320.69;;;-1.43;100.00
19789;BME280;10054;59.332;18.244;2023-03-26T06:26:30;99318.05;;;-1.41;100.00
19789;BME280;10054;59.332;18.244;2023-03-26T06:29:01;99324.35;;;-1.37;100.00
19789;BME280;10054;59.332;18.244;2023-03-26T06:31:34;99316.54;;;-1.35;100.00
19789;BME280;10054;59.332;18.244;2023-03-26T06:34:05;99328.42;;;-1.29;100.00
19789;BME280;10054;59.332;18.244;2023-03-26T06:36:34;99323.58;;;-1.27;100.00
19789;BME280;10054;59.332;18.244;2023-03-26T06:39:03;99326.02;;;-1.22;100.00
19789;BME280;10054;59.332;18.244;2023-03-26T06:41:33;99325.95;;;-1.21;100.00
19789;BME280;10054;59.332;18.244;2023-03-26T06:44:04;99333.16;;;-1.17;100.00
19789;BME280;10054;59.332;18.244;2023-03-26T06:46:51;99334.06;;;-1.18;100.00
19789;BME280;10054;59.332;18.244;2023-03-26T06:49:27;99337.44;;;-1.16;100.00
19789;BME280;10054;59.332;18.244;2023-03-26T06:51:57;99340.48;;;-1.17;100.00
19789;BME280;10054;59.332;18.244;2023-03-26T06:54:30;99345.09;;;-1.13;100.00
19789;BME280;10054;59.332;18.244;2023-03-26T06:57:12;99345.83;;;-1.10;100.00
19789;BME280;10054;59.332;18.244;2023-03-26T06:59:43;99347.63;;;-1.12;100.00
19789;BME280;10054;59.332;18.244;2023-03-26T07:02:29;99347.46;;;-1.07;100.00
19789;BME280;10054;59.332;18.244;2023-03-26T07:05:16;99350.50;;;-1.08;100.00
19789;BME280;10054;59.332;18.244;2023-03-26T07:08:03;99354.38;;;-1.08;100.00
19789;BME280;10054;59.332;18.244;2023-03-26T07:10:49;99354.28;;;-1.05;100.00
19789;BME280;10054;59.332;18.244;2023-03-26T07:13:20;99354.61;;;-1.02;100.00
19789;BME280;10054;59.332;18.244;2023-03-26T07:15:51;99353.77;;;-1.03;100.00
19789;BME280;10054;59.332;18.244;2023-03-26T07:18:27;99357.59;;;-1.01;100.00
19789;BME280;10054;59.332;18.244;2023-03-26T07:20:56;99354.56;;;-1.01;100.00
19789;BME280;10054;59.332;18.244;2023-03-26T07:23:27;99352.92;;;-1.03;100.00
19789;BME280;10054;59.332;18.244;2023-03-26T07:25:57;99357.94;;;-0.98;100.00
19789;BME280;10054;59.332;18.244;2023-03-26T07:28:38;99359.23;;;-0.98;100.00
19789;BME280;10054;59.332;18.244;2023-03-26T07:31:22;99353.95;;;-0.95;100.00
19789;BME280;10054;59.332;18.244;2023-03-26T07:46:03;99366.95;;;-0.85;100.00
19789;BME280;10054;59.332;18.244;2023-03-26T07:48:49;99367.41;;;-0.86;100.00
19789;BME280;10054;59.332;18.244;2023-03-26T07:51:26;99370.67;;;-0.81;100.00
19789;BME280;10054;59.332;18.244;2023-03-26T07:53:57;99366.79;;;-0.81;100.00
19789;BME280;10054;59.332;18.244;2023-03-26T07:57:07;99373.94;;;-0.76;100.00
19789;BME280;10054;59.332;18.244;2023-03-26T07:59:59;99368.56;;;-0.71;100.00
19789;BME280;10054;59.332;18.244;2023-03-26T08:08:35;99374.64;;;-0.72;100.00
19789;BME280;10054;59.332;18.244;2023-03-26T08:11:27;99385.45;;;-0.73;100.00
19789;BME280;10054;59.332;18.244;2023-03-26T08:14:12;99387.28;;;-0.75;100.00
19789;BME280;10054;59.332;18.244;2023-03-26T08:16:46;99386.60;;;-0.80;100.00
19789;BME280;10054;59.332;18.244;2023-03-26T08:19:34;99382.61;;;-0.77;100.00
19789;BME280;10054;59.332;18.244;2023-03-26T08:22:31;99388.44;;;-0.72;100.00
19789;BME280;10054;59.332;18.244;2023-03-26T08:25:01;99383.87;;;-0.65;100.00
19789;BME280;10054;59.332;18.244;2023-03-26T08:27:39;99383.09;;;-0.55;100.00
19789;BME280;10054;59.332;18.244;2023-03-26T08:30:16;99379.94;;;-0.52;100.00
19789;BME280;10054;59.332;18.244;2023-03-26T08:32:58;99382.35;;;-0.47;100.00
19789;BME280;10054;59.332;18.244;2023-03-26T08:35:27;99380.83;;;-0.41;100.00
19789;BME280;10054;59.332;18.244;2023-03-26T08:37:56;99391.47;;;-0.37;100.00
19789;BME280;10054;59.332;18.244;2023-03-26T08:40:38;99389.66;;;-0.35;100.00
19789;BME280;10054;59.332;18.244;2023-03-26T08:49:01;99397.10;;;-0.38;100.00
19789;BME280;10054;59.332;18.244;2023-03-26T08:56:50;99400.59;;;-0.50;100.00
19789;BME280;10054;59.332;18.244;2023-03-26T08:59:33;99391.42;;;-0.47;100.00
19789;BME280;10054;59.332;18.244;2023-03-26T09:11:01;99385.73;;;-0.45;100.00
19789;BME280;10054;59.332;18.244;2023-03-26T09:19:12;99373.97;;;-0.54;100.00
19789;BME280;10054;59.332;18.244;2023-03-26T09:32:55;99390.52;;;-0.58;100.00
19789;BME280;10054;59.332;18.244;2023-03-26T09:46:58;99393.22;;;-0.49;100.00
19789;BME280;10054;59.332;18.244;2023-03-26T10:03:39;99400.77;;;-0.43;100.00
19789;BME280;10054;59.332;18.244;2023-03-26T10:09:05;99401.89;;;-0.39;100.00
19789;BME280;10054;59.332;18.244;2023-03-26T10:11:42;99400.98;;;-0.38;100.00
19789;BME280;10054;59.332;18.244;2023-03-26T10:25:38;99411.12;;;-0.31;100.00
19789;BME280;10054;59.332;18.244;2023-03-26T10:28:52;99409.72;;;-0.28;100.00
19789;BME280;10054;59.332;18.244;2023-03-26T10:33:29;99417.31;;;-0.24;100.00
19789;BME280;10054;59.332;18.244;2023-03-26T10:50:28;99424.30;;;-0.26;100.00
19789;BME280;10054;59.332;18.244;2023-03-26T10:53:02;99422.73;;;-0.30;100.00
19789;BME280;10054;59.332;18.244;2023-03-26T10:55:41;99422.84;;;-0.33;100.00
19789;BME280;10054;59.332;18.244;2023-03-26T10:58:24;99428.81;;;-0.31;100.00
19789;BME280;10054;59.332;18.244;2023-03-26T11:01:04;99424.53;;;-0.32;100.00
19789;BME280;10054;59.332;18.244;2023-03-26T11:06:28;99422.45;;;-0.34;100.00
19789;BME280;10054;59.332;18.244;2023-03-26T11:11:50;99420.59;;;-0.30;100.00
19789;BME280;10054;59.332;18.244;2023-03-26T11:26:09;99428.30;;;-0.17;100.00
19789;BME280;10054;59.332;18.244;2023-03-26T11:31:39;99431.22;;;-0.15;100.00
19789;BME280;10054;59.332;18.244;2023-03-26T11:34:14;99432.13;;;-0.16;100.00
19789;BME280;10054;59.332;18.244;2023-03-26T11:36:45;99436.97;;;-0.07;100.00
19789;BME280;10054;59.332;18.244;2023-03-26T11:39:25;99442.15;;;-0.07;100.00
19789;BME280;10054;59.332;18.244;2023-03-26T11:42:04;99441.97;;;-0.02;100.00
19789;BME280;10054;59.332;18.244;2023-03-26T11:44:37;99438.88;;;0.00;100.00
19789;BME280;10054;59.332;18.244;2023-03-26T11:47:08;99431.91;;;0.00;100.00
19789;BME280;10054;59.332;18.244;2023-03-26T11:49:40;99435.22;;;0.04;100.00
19789;BME280;10054;59.332;18.244;2023-03-26T11:52:11;99430.31;;;0.08;100.00
19789;BME280;10054;59.332;18.244;2023-03-26T11:54:41;99429.56;;;0.16;100.00
19789;BME280;10054;59.332;18.244;2023-03-26T11:57:27;99435.98;;;0.18;100.00
19789;BME280;10054;59.332;18.244;2023-03-26T12:00:04;99441.00;;;0.22;100.00
19789;BME280;10054;59.332;18.244;2023-03-26T12:02:40;99443.14;;;0.23;100.00
19789;BME280;10054;59.332;18.244;2023-03-26T12:05:15;99438.73;;;0.25;100.00
19789;BME280;10054;59.332;18.244;2023-03-26T12:07:51;99444.02;;;0.33;100.00
19789;BME280;10054;59.332;18.244;2023-03-26T12:10:29;99444.61;;;0.40;100.00
19789;BME280;10054;59.332;18.244;2023-03-26T12:12:56;99443.83;;;0.38;100.00
19789;BME280;10054;59.332;18.244;2023-03-26T12:15:25;99443.50;;;0.36;100.00
19789;BME280;10054;59.332;18.244;2023-03-26T12:17:56;99449.14;;;0.35;100.00
19789;BME280;10054;59.332;18.244;2023-03-26T12:23:02;99439.30;;;0.21;100.00
19789;BME280;10054;59.332;18.244;2023-03-26T12:25:34;99449.80;;;0.18;99.52
19789;BME280;10054;59.332;18.244;2023-03-26T12:30:51;99441.95;;;0.20;100.00
19789;BME280;10054;59.332;18.244;2023-03-26T12:33:27;99447.63;;;0.29;100.00
19789;BME280;10054;59.332;18.244;2023-03-26T12:35:57;99453.60;;;0.31;99.88
19789;BME280;10054;59.332;18.244;2023-03-26T12:38:32;99450.61;;;0.30;100.00
19789;BME280;10054;59.332;18.244;2023-03-26T12:41:13;99446.60;;;0.33;100.00
19789;BME280;10054;59.332;18.244;2023-03-26T12:43:48;99447.06;;;0.33;100.00
19789;BME280;10054;59.332;18.244;2023-03-26T12:46:26;99442.92;;;0.39;100.00
19789;BME280;10054;59.332;18.244;2023-03-26T12:49:01;99447.66;;;0.40;99.73
19789;BME280;10054;59.332;18.244;2023-03-26T12:52:01;99450.31;;;0.38;100.00
19789;BME280;10054;59.332;18.244;2023-03-26T12:54:43;99451.70;;;0.25;99.97
19789;BME280;10054;59.332;18.244;2023-03-26T12:57:20;99451.52;;;0.29;100.00
19789;BME280;10054;59.332;18.244;2023-03-26T13:02:50;99448.23;;;0.36;100.00
19789;BME280;10054;59.332;18.244;2023-03-26T13:14:22;99451.80;;;0.33;100.00
19789;BME280;10054;59.332;18.244;2023-03-26T13:22:23;99459.34;;;0.40;100.00
19789;BME280;10054;59.332;18.244;2023-03-26T13:27:54;99468.47;;;0.38;99.57
19789;BME280;10054;59.332;18.244;2023-03-26T13:35:58;99452.45;;;0.39;98.13
19789;BME280;10054;59.332;18.244;2023-03-26T13:38:31;99455.71;;;0.44;97.16
19789;BME280;10054;59.332;18.244;2023-03-26T13:41:08;99446.78;;;0.51;98.59
19789;BME280;10054;59.332;18.244;2023-03-26T13:46:39;99451.08;;;0.62;97.16
19789;BME280;10054;59.332;18.244;2023-03-26T13:49:14;99455.24;;;0.66;96.00
19789;BME280;10054;59.332;18.244;2023-03-26T13:54:29;99455.88;;;0.61;93.42
19789;BME280;10054;59.332;18.244;2023-03-26T13:59:55;99447.39;;;0.68;96.17
19789;BME280;10054;59.332;18.244;2023-03-26T14:02:29;99450.19;;;0.73;97.13
19789;BME280;10054;59.332;18.244;2023-03-26T14:05:16;99447.72;;;0.70;96.50
19789;BME280;10054;59.332;18.244;2023-03-26T14:07:49;99445.70;;;0.67;95.45
19789;BME280;10054;59.332;18.244;2023-03-26T14:10:22;99455.24;;;0.66;96.67
19789;BME280;10054;59.332;18.244;2023-03-26T14:16:38;99465.88;;;0.60;95.07
19789;BME280;10054;59.332;18.244;2023-03-26T14:18:51;99475.02;;;0.58;95.80
19789;BME280;10054;59.332;18.244;2023-03-26T14:27:15;99470.38;;;0.45;93.47
19789;BME280;10054;59.332;18.244;2023-03-26T14:32:36;99469.80;;;0.48;95.77
19789;BME280;10054;59.332;18.244;2023-03-26T14:35:15;99474.50;;;0.39;94.00
19789;BME280;10054;59.332;18.244;2023-03-26T14:43:41;99491.78;;;0.28;92.14
19789;BME280;10054;59.332;18.244;2023-03-26T14:52:12;99481.37;;;0.18;91.00
19789;BME280;10054;59.332;18.244;2023-03-26T14:54:43;99486.56;;;0.06;90.87
19789;BME280;10054;59.332;18.244;2023-03-26T15:09:10;99467.56;;;-0.05;93.89
19789;BME280;10054;59.332;18.244;2023-03-26T15:23:45;99478.33;;;-0.27;95.84
19789;BME280;10054;59.332;18.244;2023-03-26T15:32:31;99476.80;;;-0.44;97.91
19789;BME280;10054;59.332;18.244;2023-03-26T15:37:58;99491.82;;;-0.54;98.24
19789;BME280;10054;59.332;18.244;2023-03-26T15:43:25;99476.10;;;-0.61;99.30
19789;BME280;10054;59.332;18.244;2023-03-26T15:46:23;99482.30;;;-0.53;99.21
19789;BME280;10054;59.332;18.244;2023-03-26T15:49:28;99483.49;;;-0.50;99.30
19789;BME280;10054;59.332;18.244;2023-03-26T15:52:13;99483.49;;;-0.50;98.66
19789;BME280;10054;59.332;18.244;2023-03-26T15:54:52;99492.27;;;-0.54;98.96
19789;BME280;10054;59.332;18.244;2023-03-26T15:57:36;99506.34;;;-0.61;98.69
19789;BME280;10054;59.332;18.244;2023-03-26T16:00:25;99504.48;;;-0.58;99.97
19789;BME280;10054;59.332;18.244;2023-03-26T16:11:06;99514.16;;;-0.63;98.18
19789;BME280;10054;59.332;18.244;2023-03-26T16:13:39;99518.09;;;-0.64;97.86
19789;BME280;10054;59.332;18.244;2023-03-26T16:16:22;99520.29;;;-0.66;98.01
19789;BME280;10054;59.332;18.244;2023-03-26T16:18:58;99524.52;;;-0.63;98.57
19789;BME280;10054;59.332;18.244;2023-03-26T16:29:22;99532.69;;;-0.62;97.79
19789;BME280;10054;59.332;18.244;2023-03-26T16:32:09;99528.45;;;-0.64;98.22
19789;BME280;10054;59.332;18.244;2023-03-26T16:34:44;99526.97;;;-0.72;97.96
19789;BME280;10054;59.332;18.244;2023-03-26T16:40:26;99520.89;;;-0.82;99.05
19789;BME280;10054;59.332;18.244;2023-03-26T16:45:57;99533.20;;;-0.89;99.58
19789;BME280;10054;59.332;18.244;2023-03-26T16:54:56;99536.14;;;-1.00;100.00
19789;BME280;10054;59.332;18.244;2023-03-26T16:57:27;99546.49;;;-1.00;100.00
19789;BME280;10054;59.332;18.244;2023-03-26T17:03:14;99561.92;;;-0.96;100.00
19789;BME280;10054;59.332;18.244;2023-03-26T17:08:47;99552.17;;;-1.02;100.00
19789;BME280;10054;59.332;18.244;2023-03-26T17:17:18;99548.73;;;-1.15;100.00
19789;BME280;10054;59.332;18.244;2023-03-26T17:20:06;99547.44;;;-1.15;100.00
19789;BME280;10054;59.332;18.244;2023-03-26T17:22:46;99542.70;;;-1.16;100.00
19789;BME280;10054;59.332;18.244;2023-03-26T17:25:27;99542.55;;;-1.24;100.00
19789;BME280;10054;59.332;18.244;2023-03-26T17:28:17;99539.96;;;-1.24;100.00
19789;BME280;10054;59.332;18.244;2023-03-26T17:33:36;99545.54;;;-1.23;100.00
19789;BME280;10054;59.332;18.244;2023-03-26T17:36:21;99550.91;;;-1.29;100.00
19789;BME280;10054;59.332;18.244;2023-03-26T17:38:53;99543.09;;;-1.28;100.00
19789;BME280;10054;59.332;18.244;2023-03-26T17:41:54;99550.11;;;-1.32;100.00
19789;BME280;10054;59.332;18.244;2023-03-26T17:44:45;99542.80;;;-1.32;100.00
19789;BME280;10054;59.332;18.244;2023-03-26T17:46:59;99544.13;;;-1.34;100.00
19789;BME280;10054;59.332;18.244;2023-03-26T17:49:29;99545.83;;;-1.33;100.00
19789;BME280;10054;59.332;18.244;2023-03-26T17:52:22;99545.38;;;-1.32;100.00
19789;BME280;10054;59.332;18.244;2023-03-26T17:54:49;99543.34;;;-1.36;100.00
19789;BME280;10054;59.332;18.244;2023-03-26T17:57:44;99545.92;;;-1.36;100.00
19789;BME280;10054;59.332;18.244;2023-03-26T18:00:20;99544.13;;;-1.34;100.00
19789;BME280;10054;59.332;18.244;2023-03-26T18:03:01;99538.06;;;-1.33;100.00
19789;BME280;10054;59.332;18.244;2023-03-26T18:05:28;99547.92;;;-1.30;100.00
19789;BME280;10054;59.332;18.244;2023-03-26T18:14:15;99538.35;;;-1.42;100.00
19789;BME280;10054;59.332;18.244;2023-03-26T18:16:43;99533.12;;;-1.40;100.00
19789;BME280;10054;59.332;18.244;2023-03-26T18:19:17;99537.55;;;-1.44;100.00
19789;BME280;10054;59.332;18.244;2023-03-26T18:21:53;99539.73;;;-1.45;100.00
19789;BME280;10054;59.332;18.244;2023-03-26T18:24:26;99542.87;;;-1.48;100.00
19789;BME280;10054;59.332;18.244;2023-03-26T18:26:57;99538.54;;;-1.48;100.00